createdAt,value
2024-05-09T00:02:11.555Z,3.67
2024-05-09T00:04:39.164Z,3.83
2024-05-09T00:07:05.755Z,3.15
2024-05-09T00:09:32.468Z,3.00
2024-05-09T00:11:59.143Z,3.20
2024-05-09T00:14:25.991Z,3.50
2024-05-09T00:16:52.625Z,3.38
2024-05-09T00:19:19.369Z,3.50
2024-05-09T00:21:46.005Z,3.20
2024-05-09T00:24:12.685Z,3.20
2024-05-09T00:26:39.354Z,3.80
2024-05-09T00:29:05.949Z,3.10
2024-05-09T00:31:32.516Z,3.67
2024-05-09T00:33:59.242Z,2.58
2024-05-09T00:36:25.910Z,3.23
2024-05-09T00:38:52.459Z,3.08
2024-05-09T00:41:19.895Z,3.20
2024-05-09T00:43:46.686Z,3.50
2024-05-09T00:46:13.747Z,3.10
2024-05-09T00:48:41.055Z,3.27
2024-05-09T00:51:08.020Z,3.53
2024-05-09T00:53:34.946Z,3.53
2024-05-09T00:56:01.863Z,3.33
2024-05-09T00:58:29.644Z,3.55
2024-05-09T01:00:59.271Z,3.20
2024-05-09T01:03:26.989Z,3.15
2024-05-09T01:05:54.155Z,3.40
2024-05-09T01:08:21.070Z,3.42
2024-05-09T01:10:48.712Z,3.28
2024-05-09T01:13:15.536Z,3.67
2024-05-09T01:15:43.047Z,3.55
2024-05-09T01:18:12.379Z,4.15
2024-05-09T01:20:43.290Z,3.70
2024-05-09T01:23:12.653Z,3.30
2024-05-09T01:25:40.239Z,3.97
2024-05-09T01:28:07.132Z,3.60
2024-05-09T01:30:36.310Z,3.85
2024-05-09T01:33:09.600Z,4.10
2024-05-09T01:35:38.818Z,3.88
2024-05-09T01:38:06.161Z,3.60
2024-05-09T01:40:38.003Z,3.55
2024-05-09T01:43:07.570Z,2.58
2024-05-09T01:45:34.363Z,3.28
2024-05-09T01:48:01.305Z,3.63
2024-05-09T01:50:37.721Z,3.50
2024-05-09T01:53:08.961Z,3.65
2024-05-09T01:55:35.699Z,3.30
2024-05-09T01:58:02.297Z,3.72
2024-05-09T02:00:37.581Z,4.10
2024-05-09T02:03:10.191Z,3.40
2024-05-09T02:05:37.850Z,3.67
2024-05-09T02:08:05.808Z,3.67
2024-05-09T02:10:33.396Z,3.47
2024-05-09T02:13:00.431Z,3.50
2024-05-09T02:15:27.010Z,3.63
2024-05-09T02:17:53.885Z,3.42
2024-05-09T02:20:30.136Z,3.42
2024-05-09T02:23:04.011Z,3.20
2024-05-09T02:25:32.025Z,3.38
2024-05-09T02:27:58.745Z,3.17
2024-05-09T02:30:35.333Z,3.83
2024-05-09T02:33:06.592Z,3.53
2024-05-09T02:35:33.636Z,3.45
2024-05-09T02:38:00.584Z,3.72
2024-05-09T02:40:35.651Z,3.33
2024-05-09T02:43:05.096Z,3.05
2024-05-09T02:45:31.845Z,3.45
2024-05-09T02:47:58.995Z,3.08
2024-05-09T02:50:33.816Z,3.50
2024-05-09T02:53:05.196Z,3.20
2024-05-09T02:55:32.276Z,3.85
2024-05-09T02:57:58.962Z,3.08
2024-05-09T03:00:34.534Z,2.95
2024-05-09T03:03:07.152Z,3.88
2024-05-09T03:05:34.219Z,3.67
2024-05-09T03:08:01.044Z,3.65
2024-05-09T03:10:29.241Z,3.00
2024-05-09T03:13:09.088Z,3.22
2024-05-09T03:15:36.005Z,3.05
2024-05-09T03:18:03.249Z,2.70
2024-05-09T03:20:34.246Z,2.97
2024-05-09T03:23:02.951Z,3.17
2024-05-09T03:25:29.699Z,3.70
2024-05-09T03:27:56.570Z,3.20
2024-05-09T03:30:35.862Z,3.33
2024-05-09T03:33:10.987Z,3.47
2024-05-09T03:35:38.140Z,3.60
2024-05-09T03:38:04.950Z,4.10
2024-05-09T03:40:31.593Z,4.22
2024-05-09T03:42:58.859Z,4.30
2024-05-09T03:45:25.597Z,3.90
2024-05-09T03:47:52.670Z,3.67
2024-05-09T03:50:26.481Z,3.30
2024-05-09T03:53:00.620Z,3.65
2024-05-09T03:55:27.481Z,3.70
2024-05-09T03:57:54.097Z,3.13
2024-05-09T04:00:30.472Z,4.25
2024-05-09T04:03:02.878Z,3.65
2024-05-09T04:05:31.126Z,4.00
2024-05-09T04:07:58.105Z,3.53
2024-05-09T04:10:31.350Z,4.03
2024-05-09T04:13:01.018Z,4.85
2024-05-09T04:15:27.737Z,4.50
2024-05-09T04:17:54.440Z,4.55
2024-05-09T04:20:32.562Z,4.90
2024-05-09T04:23:05.412Z,5.60
2024-05-09T04:25:32.183Z,4.60
2024-05-09T04:27:58.759Z,4.50
2024-05-09T04:30:34.607Z,4.30
2024-05-09T04:33:06.721Z,5.13
2024-05-09T04:35:34.559Z,4.55
2024-05-09T04:38:01.402Z,4.45
2024-05-09T04:40:33.442Z,4.22
2024-05-09T04:43:03.416Z,4.13
2024-05-09T04:45:30.395Z,3.87
2024-05-09T04:47:57.518Z,4.32
2024-05-09T04:50:33.610Z,4.60
2024-05-09T04:53:04.926Z,4.35
2024-05-09T04:55:33.143Z,4.00
2024-05-09T04:57:59.841Z,3.57
2024-05-09T05:00:34.528Z,3.97
2024-05-09T05:03:07.001Z,4.60
2024-05-09T05:05:36.239Z,4.15
2024-05-09T05:08:02.926Z,3.88
2024-05-09T05:10:35.502Z,4.00
2024-05-09T05:13:17.733Z,3.95
2024-05-09T05:15:53.326Z,3.95
2024-05-09T05:18:22.064Z,3.78
2024-05-09T05:20:49.382Z,4.03
2024-05-09T05:23:21.146Z,3.83
2024-05-09T05:25:49.214Z,4.28
2024-05-09T05:28:16.779Z,4.82
2024-05-09T05:30:43.891Z,4.72
2024-05-09T05:33:12.375Z,4.45
2024-05-09T05:35:39.775Z,4.30
2024-05-09T05:38:07.396Z,4.00
2024-05-09T05:40:37.258Z,4.30
2024-05-09T05:43:10.445Z,3.80
2024-05-09T05:45:37.850Z,5.03
2024-05-09T05:48:06.343Z,3.97
2024-05-09T05:50:36.669Z,4.82
2024-05-09T05:53:09.831Z,4.97
2024-05-09T05:55:37.764Z,5.20
2024-05-09T05:58:04.657Z,4.95
2024-05-09T06:00:38.263Z,6.03
2024-05-09T06:03:07.580Z,6.82
2024-05-09T06:05:35.818Z,6.53
2024-05-09T06:08:02.689Z,6.80
2024-05-09T06:10:37.498Z,6.38
2024-05-09T06:13:07.162Z,6.47
2024-05-09T06:15:33.816Z,7.30
2024-05-09T06:18:00.644Z,7.22
2024-05-09T06:20:34.935Z,7.40
2024-05-09T06:23:04.508Z,7.63
2024-05-09T06:25:31.476Z,8.90
2024-05-09T06:27:59.118Z,7.93
2024-05-09T06:30:34.449Z,8.00
2024-05-09T06:33:06.074Z,8.70
2024-05-09T06:35:33.648Z,8.25
2024-05-09T06:38:00.785Z,8.43
2024-05-09T06:40:36.211Z,8.07
2024-05-09T06:43:05.972Z,8.45
2024-05-09T06:45:32.644Z,8.27
2024-05-09T06:47:59.350Z,9.60
2024-05-09T06:50:28.656Z,8.97
2024-05-09T06:53:02.249Z,9.20
2024-05-09T06:55:29.067Z,9.30
2024-05-09T06:57:55.651Z,9.10
2024-05-09T07:00:30.197Z,8.80
2024-05-09T07:03:12.435Z,9.03
2024-05-09T07:05:40.690Z,7.82
2024-05-09T07:08:07.559Z,9.27
2024-05-09T07:10:36.372Z,8.85
2024-05-09T07:13:07.723Z,9.18
2024-05-09T07:15:34.265Z,8.83
2024-05-09T07:18:00.978Z,8.57
2024-05-09T07:20:34.110Z,9.07
2024-05-09T07:23:03.159Z,8.15
2024-05-09T07:25:30.288Z,8.15
2024-05-09T07:27:57.112Z,8.10
2024-05-09T07:30:32.537Z,8.02
2024-05-09T07:33:01.619Z,7.70
2024-05-09T07:35:29.127Z,7.45
2024-05-09T07:37:55.953Z,7.18
2024-05-09T07:40:32.337Z,8.63
2024-05-09T07:43:07.491Z,7.32
2024-05-09T07:52:23.832Z,8.10
2024-05-09T07:53:38.900Z,8.63
2024-05-09T07:56:09.395Z,7.13
2024-05-09T07:58:36.745Z,8.18
2024-05-09T08:01:03.713Z,7.75
2024-05-09T08:03:31.062Z,8.02
2024-05-09T08:05:57.684Z,7.00
2024-05-09T08:08:24.270Z,6.32
2024-05-09T08:10:51.568Z,6.25
2024-05-09T08:13:18.450Z,6.40
2024-05-09T08:15:45.334Z,7.13
2024-05-09T08:18:12.220Z,6.37
2024-05-09T08:20:40.258Z,5.85
2024-05-09T08:23:07.344Z,5.95
2024-05-09T08:25:34.087Z,6.13
2024-05-09T08:28:00.863Z,6.15
2024-05-09T08:30:33.667Z,7.07
2024-05-09T08:33:05.134Z,7.30
2024-05-09T08:35:33.950Z,7.50
2024-05-09T08:38:03.316Z,7.38
2024-05-09T08:40:35.595Z,7.28
2024-05-09T08:43:07.774Z,6.70
2024-05-09T08:45:35.966Z,6.43
2024-05-09T08:48:06.279Z,7.53
2024-05-09T08:50:38.686Z,7.47
2024-05-09T08:53:07.321Z,8.02
2024-05-09T08:55:34.068Z,7.53
2024-05-09T08:58:03.439Z,7.78
2024-05-09T09:00:36.791Z,6.97
2024-05-09T09:03:09.110Z,6.50
2024-05-09T09:05:39.092Z,7.47
2024-05-09T09:08:07.983Z,6.83
2024-05-09T09:10:35.607Z,5.85
2024-05-09T09:13:04.918Z,7.25
2024-05-09T09:15:32.262Z,7.15
2024-05-09T09:18:02.280Z,6.38
2024-05-09T09:20:36.297Z,6.80
2024-05-09T09:23:04.489Z,7.13
2024-05-09T09:25:32.105Z,6.72
2024-05-09T09:27:59.236Z,6.35
2024-05-09T09:30:36.291Z,6.38
2024-05-09T09:33:06.104Z,8.00
2024-05-09T09:35:33.049Z,6.35
2024-05-09T09:38:02.819Z,5.82
2024-05-09T09:40:36.004Z,5.60
2024-05-09T09:43:09.474Z,5.60
2024-05-09T09:45:36.599Z,5.37
2024-05-09T09:48:04.974Z,5.38
2024-05-09T09:50:35.311Z,5.72
2024-05-09T09:53:04.881Z,5.65
2024-05-09T09:55:32.947Z,6.60
2024-05-09T09:58:00.613Z,5.30
2024-05-09T10:00:32.755Z,5.90
2024-05-09T10:03:00.981Z,5.15
2024-05-09T10:05:28.783Z,5.60
2024-05-09T10:07:57.420Z,5.03
2024-05-09T10:10:32.077Z,4.93
2024-05-09T10:13:00.925Z,5.68
2024-05-09T10:15:28.055Z,5.20
2024-05-09T10:17:54.920Z,4.95
2024-05-09T10:20:27.998Z,5.38
2024-05-09T10:22:57.689Z,4.40
2024-05-09T10:25:25.147Z,3.83
2024-05-09T10:27:55.635Z,5.20
2024-05-09T10:30:29.798Z,3.63
2024-05-09T10:33:02.499Z,4.60
2024-05-09T10:35:31.964Z,6.60
2024-05-09T10:38:06.001Z,4.65
2024-05-09T10:40:33.120Z,4.07
2024-05-09T10:43:02.606Z,4.65
2024-05-09T10:45:32.031Z,4.95
2024-05-09T10:47:58.890Z,4.70
2024-05-09T10:50:29.155Z,4.10
2024-05-09T10:53:00.460Z,4.28
2024-05-09T10:55:27.516Z,5.13
2024-05-09T10:57:54.256Z,5.25
2024-05-09T11:00:27.602Z,4.70
2024-05-09T11:03:00.114Z,5.82
2024-05-09T11:05:26.986Z,6.60
2024-05-09T11:07:53.962Z,5.47
2024-05-09T11:10:27.628Z,6.95
2024-05-09T11:13:00.092Z,5.87
2024-05-09T11:15:37.173Z,5.18
2024-05-09T11:18:04.002Z,4.32
2024-05-09T11:20:37.541Z,5.85
2024-05-09T11:23:05.798Z,5.00
2024-05-09T11:25:35.219Z,5.07
2024-05-09T11:28:02.586Z,5.80
2024-05-09T11:30:32.087Z,5.22
2024-05-09T11:32:59.487Z,5.20
2024-05-09T11:35:27.036Z,6.65
2024-05-09T11:37:53.737Z,6.10
2024-05-09T11:40:25.498Z,6.03
2024-05-09T11:42:55.348Z,6.28
2024-05-09T11:45:22.070Z,6.47
2024-05-09T11:47:49.379Z,7.30
2024-05-09T11:50:26.431Z,6.23
2024-05-09T11:52:56.494Z,6.28
2024-05-09T11:55:27.372Z,6.20
2024-05-09T11:57:55.356Z,5.80
2024-05-09T12:00:29.592Z,5.93
2024-05-09T12:03:05.179Z,7.03
2024-05-09T12:05:32.952Z,5.95
2024-05-09T12:08:00.704Z,6.03
2024-05-09T12:10:33.149Z,4.85
2024-05-09T12:13:02.805Z,4.93
2024-05-09T12:15:30.162Z,6.00
2024-05-09T12:17:59.079Z,6.78
2024-05-09T12:20:35.458Z,4.80
2024-05-09T12:23:05.442Z,4.57
2024-05-09T12:25:32.137Z,5.30
2024-05-09T12:27:58.911Z,6.30
2024-05-09T12:30:35.231Z,5.82
2024-05-09T12:33:05.962Z,5.72
2024-05-09T12:35:32.945Z,6.28
2024-05-09T12:37:59.736Z,4.55
2024-05-09T12:40:34.479Z,6.30
2024-05-09T12:43:04.688Z,6.80
2024-05-09T12:45:31.718Z,5.60
2024-05-09T12:47:58.653Z,6.35
2024-05-09T12:50:31.907Z,6.90
2024-05-09T12:53:01.590Z,6.03
2024-05-09T12:55:31.775Z,5.18
2024-05-09T12:58:04.191Z,6.32
2024-05-09T13:00:33.977Z,6.60
2024-05-09T13:03:01.506Z,6.97
2024-05-09T13:05:28.817Z,5.07
2024-05-09T13:07:56.833Z,6.15
2024-05-09T13:10:31.129Z,5.35
2024-05-09T13:13:00.175Z,7.88
2024-05-09T13:15:27.315Z,7.25
2024-05-09T13:17:56.357Z,5.17
2024-05-09T13:20:31.229Z,5.88
2024-05-09T13:23:02.116Z,7.60
2024-05-09T13:25:28.853Z,7.63
2024-05-09T13:27:56.578Z,6.13
2024-05-09T13:30:29.799Z,6.30
2024-05-09T13:33:05.456Z,6.03
2024-05-09T13:35:34.400Z,4.82
2024-05-09T13:38:02.091Z,7.35
2024-05-09T13:40:33.668Z,5.38
2024-05-09T13:43:02.894Z,5.53
2024-05-09T13:45:29.739Z,6.10
2024-05-09T13:47:56.872Z,6.50
2024-05-09T13:50:31.575Z,6.90
2024-05-09T13:53:02.294Z,5.63
2024-05-09T13:55:28.952Z,5.50
2024-05-09T13:57:56.013Z,6.40
2024-05-09T14:00:32.334Z,6.70
2024-05-09T14:03:09.542Z,6.65
2024-05-09T14:05:36.445Z,6.50
2024-05-09T14:08:03.288Z,6.70
2024-05-09T14:10:31.874Z,6.60
2024-05-09T14:12:59.647Z,6.03
2024-05-09T14:15:26.312Z,5.55
2024-05-09T14:17:53.012Z,6.85
2024-05-09T14:20:29.718Z,6.67
2024-05-09T14:22:58.343Z,6.82
2024-05-09T14:25:26.588Z,6.75
2024-05-09T14:27:53.588Z,6.70
2024-05-09T14:30:29.773Z,5.78
2024-05-09T14:33:01.580Z,5.53
2024-05-09T14:35:28.283Z,7.05
2024-05-09T14:37:55.044Z,6.53
2024-05-09T14:40:31.156Z,6.85
2024-05-09T14:43:06.440Z,7.03
2024-05-09T14:45:34.674Z,7.60
2024-05-09T14:48:02.267Z,6.22
2024-05-09T14:50:35.497Z,6.65
2024-05-09T14:53:06.211Z,7.35
2024-05-09T14:55:35.713Z,7.22
2024-05-09T14:58:03.055Z,8.70
2024-05-09T15:00:35.435Z,7.10
2024-05-09T15:03:03.664Z,7.57
2024-05-09T15:05:30.510Z,6.88
2024-05-09T15:07:57.857Z,7.60
2024-05-09T15:10:33.375Z,8.53
2024-05-09T15:13:02.409Z,7.53
2024-05-09T15:15:29.202Z,7.15
2024-05-09T15:17:55.972Z,6.30
2024-05-09T15:20:31.071Z,5.88
2024-05-09T15:23:02.046Z,7.50
2024-05-09T15:25:28.891Z,7.82
2024-05-09T15:27:55.619Z,8.93
2024-05-09T15:30:29.598Z,7.13
2024-05-09T15:32:58.548Z,6.47
2024-05-09T15:35:25.119Z,7.73
2024-05-09T15:37:51.846Z,7.75
2024-05-09T15:40:26.572Z,6.70
2024-05-09T15:43:02.346Z,5.90
2024-05-09T15:45:29.407Z,6.53
2024-05-09T15:47:57.131Z,6.47
2024-05-09T15:50:35.178Z,6.40
2024-05-09T15:53:06.445Z,6.47
2024-05-09T15:55:34.105Z,6.25
2024-05-09T15:58:02.653Z,7.47
2024-05-09T16:00:37.399Z,7.33
2024-05-09T16:03:08.068Z,7.05
2024-05-09T16:05:34.875Z,8.35
2024-05-09T16:08:01.893Z,8.38
2024-05-09T16:10:32.745Z,6.20
2024-05-09T16:13:01.897Z,6.37
2024-05-09T16:15:29.046Z,6.53
2024-05-09T16:17:56.452Z,7.60
2024-05-09T16:20:34.774Z,7.20
2024-05-09T16:23:06.684Z,6.75
2024-05-09T16:25:33.484Z,7.90
2024-05-09T16:28:00.395Z,7.30
2024-05-09T16:30:34.152Z,7.32
2024-05-09T16:33:05.842Z,8.90
2024-05-09T16:35:33.019Z,7.75
2024-05-09T16:38:02.262Z,7.60
2024-05-09T16:40:36.468Z,7.28
2024-05-09T16:43:06.843Z,7.40
2024-05-09T16:45:33.918Z,8.88
2024-05-09T16:48:01.604Z,10.30
2024-05-09T16:50:32.793Z,7.63
2024-05-09T16:53:02.005Z,7.90
2024-05-09T16:55:28.940Z,10.77
2024-05-09T16:57:56.976Z,8.02
2024-05-09T17:00:35.150Z,8.55
2024-05-09T17:03:07.921Z,10.63
2024-05-09T17:05:35.424Z,8.40
2024-05-09T17:08:02.722Z,8.60
2024-05-09T17:10:33.239Z,8.55
2024-05-09T17:13:02.479Z,9.98
2024-05-09T17:15:29.887Z,12.27
2024-05-09T17:17:56.799Z,14.57
2024-05-09T17:20:31.299Z,13.00
2024-05-09T17:23:02.676Z,13.63
2024-05-09T17:25:29.674Z,14.85
2024-05-09T17:27:56.896Z,14.97
2024-05-09T17:30:31.959Z,10.50
2024-05-09T17:33:04.324Z,10.55
2024-05-09T17:35:32.058Z,10.45
2024-05-09T17:37:59.781Z,11.85
2024-05-09T17:40:32.786Z,12.70
2024-05-09T17:43:03.237Z,12.15
2024-05-09T17:45:30.353Z,11.50
2024-05-09T17:47:57.383Z,10.25
2024-05-09T17:50:30.859Z,10.82
2024-05-09T17:53:01.880Z,12.17
2024-05-09T17:55:28.759Z,12.43
2024-05-09T17:57:55.567Z,9.95
2024-05-09T18:00:32.882Z,11.70
2024-05-09T18:03:05.497Z,12.32
2024-05-09T18:05:32.390Z,11.13
2024-05-09T18:07:59.139Z,9.90
2024-05-09T18:10:32.956Z,10.02
2024-05-09T18:13:05.652Z,8.40
2024-05-09T18:15:33.018Z,10.25
2024-05-09T18:18:00.039Z,9.70
2024-05-09T18:20:37.879Z,10.07
2024-05-09T18:23:10.097Z,11.20
2024-05-09T18:25:36.745Z,10.68
2024-05-09T18:28:03.876Z,10.18
2024-05-09T18:30:34.987Z,10.70
2024-05-09T18:33:04.581Z,9.95
2024-05-09T18:35:32.111Z,10.43
2024-05-09T18:37:58.725Z,9.57
2024-05-09T18:40:32.554Z,10.18
2024-05-09T18:43:03.386Z,10.50
2024-05-09T18:45:30.426Z,10.18
2024-05-09T18:47:57.207Z,8.85
2024-05-09T18:50:32.351Z,8.82
2024-05-09T18:53:05.770Z,9.32
2024-05-09T18:55:32.556Z,10.20
2024-05-09T18:57:59.201Z,9.75
2024-05-09T19:00:34.008Z,9.45
2024-05-09T19:03:05.946Z,8.90
2024-05-09T19:05:34.858Z,9.80
2024-05-09T19:08:02.172Z,10.60
2024-05-09T19:10:33.762Z,10.80
2024-05-09T19:13:04.352Z,11.07
2024-05-09T19:15:33.684Z,11.02
2024-05-09T19:18:00.656Z,10.57
2024-05-09T19:20:33.164Z,9.40
2024-05-09T19:23:01.418Z,10.95
2024-05-09T19:25:27.994Z,11.02
2024-05-09T19:27:54.644Z,11.15
2024-05-09T19:30:29.898Z,11.02
2024-05-09T19:33:04.765Z,10.80
2024-05-09T19:35:31.880Z,11.65
2024-05-09T19:37:58.598Z,11.23
2024-05-09T19:40:31.089Z,10.55
2024-05-09T19:42:59.991Z,10.55
2024-05-09T19:45:26.624Z,10.10
2024-05-09T19:47:53.473Z,9.27
2024-05-09T19:50:26.899Z,9.45
2024-05-09T19:53:02.352Z,9.30
2024-05-09T19:55:28.967Z,9.43
2024-05-09T19:57:55.578Z,9.40
2024-05-09T20:00:29.149Z,9.48
2024-05-09T20:03:01.938Z,9.05
2024-05-09T20:05:31.081Z,9.02
2024-05-09T20:07:58.014Z,9.27
2024-05-09T20:10:29.919Z,8.83
2024-05-09T20:12:59.498Z,9.30
2024-05-09T20:15:26.178Z,9.88
2024-05-09T20:17:53.342Z,8.95
2024-05-09T20:20:28.425Z,10.68
2024-05-09T20:23:02.888Z,10.60
2024-05-09T20:25:29.546Z,10.18
2024-05-09T20:27:56.184Z,11.38
2024-05-09T20:30:30.446Z,11.40
2024-05-09T20:32:59.826Z,11.43
2024-05-09T20:35:26.837Z,11.70
2024-05-09T20:37:53.631Z,12.18
2024-05-09T20:40:28.331Z,11.27
2024-05-09T20:42:59.297Z,11.30
2024-05-09T20:45:25.981Z,12.02
2024-05-09T20:47:53.065Z,11.57
2024-05-09T20:50:28.412Z,12.07
2024-05-09T20:53:02.853Z,11.55
2024-05-09T20:55:30.124Z,11.45
2024-05-09T20:57:57.367Z,12.75
2024-05-09T21:00:33.706Z,11.63
2024-05-09T21:03:06.495Z,11.50
2024-05-09T21:05:34.639Z,11.85
2024-05-09T21:08:01.879Z,11.60
2024-05-09T21:10:32.724Z,11.55
2024-05-09T21:13:00.812Z,12.33
2024-05-09T21:15:27.528Z,11.45
2024-05-09T21:17:54.176Z,11.43
2024-05-09T21:20:24.486Z,10.60
2024-05-09T21:22:57.907Z,10.45
2024-05-09T21:25:24.585Z,10.80
2024-05-09T21:27:51.428Z,12.18
2024-05-09T21:30:27.358Z,12.52
2024-05-09T21:32:59.965Z,10.48
2024-05-09T21:35:26.758Z,10.75
2024-05-09T21:37:53.451Z,10.60
2024-05-09T21:40:30.591Z,12.07
2024-05-09T21:43:01.294Z,10.85
2024-05-09T21:45:28.045Z,11.25
2024-05-09T21:47:54.771Z,12.18
2024-05-09T21:50:28.068Z,11.43
2024-05-09T21:52:59.244Z,11.90
2024-05-09T21:55:25.835Z,11.70
2024-05-09T21:57:52.518Z,11.63
2024-05-09T22:00:28.783Z,12.10
2024-05-09T22:03:02.314Z,11.97
2024-05-09T22:05:29.295Z,12.63
2024-05-09T22:07:56.666Z,12.30
2024-05-09T22:10:27.175Z,12.40
2024-05-09T22:13:00.192Z,11.32
2024-05-09T22:15:27.158Z,11.60
2024-05-09T22:17:54.003Z,10.90
2024-05-09T22:20:28.808Z,10.15
2024-05-09T22:23:02.578Z,10.07
2024-05-09T22:25:30.922Z,10.57
2024-05-09T22:27:58.643Z,10.27
2024-05-09T22:30:34.030Z,9.60
2024-05-09T22:33:05.478Z,10.05
2024-05-09T22:35:32.346Z,10.15
2024-05-09T22:37:59.056Z,9.68
2024-05-09T22:40:37.936Z,8.43
2024-05-09T22:43:12.661Z,9.35
2024-05-09T22:45:39.673Z,8.48
2024-05-09T22:48:07.520Z,8.60
2024-05-09T22:50:34.298Z,9.93
2024-05-09T22:53:01.196Z,8.80
2024-05-09T22:55:27.965Z,8.82
2024-05-09T22:57:54.702Z,8.93
2024-05-09T23:00:29.331Z,7.60
2024-05-09T23:03:02.604Z,9.38
2024-05-09T23:05:30.461Z,8.40
2024-05-09T23:07:57.201Z,9.43
2024-05-09T23:10:31.533Z,9.05
2024-05-09T23:13:02.910Z,9.18
2024-05-09T23:15:29.768Z,9.23
2024-05-09T23:17:57.363Z,9.13
2024-05-09T23:20:33.684Z,9.40
2024-05-09T23:23:05.382Z,10.35
2024-05-09T23:25:32.009Z,11.02
2024-05-09T23:27:58.823Z,11.43
2024-05-09T23:30:33.740Z,10.97
2024-05-09T23:33:05.966Z,11.23
2024-05-09T23:35:32.724Z,11.63
2024-05-09T23:37:59.523Z,12.10
2024-05-09T23:40:36.955Z,13.43
2024-05-09T23:43:06.963Z,12.57
2024-05-09T23:45:33.978Z,11.65
2024-05-09T23:48:01.230Z,11.55
2024-05-09T23:50:34.535Z,11.27
2024-05-09T23:53:05.110Z,11.30
2024-05-09T23:55:32.390Z,12.13
2024-05-09T23:57:59.740Z,11.30
